Time;durP1;ratioP1;P1;durP2;ratioP2;P2;SDS_P1;SDS_P2;PMS_P1;PMS_P2;Temp;Humidity;BMP_temperature;BMP_pressure;BME280_temperature;BME280_humidity;BME280_pressure;Samples;Min_cycle;Max_cycle;Signal;HPM_P1;HPM_P2
2023/08/02 00:01:13;;;;;;;6.27;1.60;;;;;;;;;;5011123;28;20475;-55
2023/08/02 00:03:40;;;;;;;3.37;1.80;;;;;;;;;;5010721;28;20870;-54
2023/08/02 00:06:07;;;;;;;2.87;1.70;;;;;;;;;;5011372;28;20475;-56
2023/08/02 00:08:35;;;;;;;2.90;1.40;;;;;;;;;;5011403;28;20451;-54
2023/08/02 00:11:03;;;;;;;5.27;2.00;;;;;;;;;;5010332;28;20557;-54
2023/08/02 00:13:30;;;;;;;3.30;2.43;;;;;;;;;;5011162;28;20521;-56
2023/08/02 00:15:59;;;;;;;3.80;1.97;;;;;;;;;;5011085;28;20542;-55
2023/08/02 00:18:26;;;;;;;2.40;1.40;;;;;;;;;;5010849;28;20538;-56
2023/08/02 00:20:53;;;;;;;4.43;1.43;;;;;;;;;;5009034;28;20939;-55
2023/08/02 00:23:20;;;;;;;2.93;1.50;;;;;;;;;;5008436;28;20475;-56
2023/08/02 00:25:47;;;;;;;3.40;1.53;;;;;;;;;;5008982;28;20526;-55
2023/08/02 00:28:15;;;;;;;2.73;1.60;;;;;;;;;;5009144;28;20882;-55
2023/08/02 00:30:45;;;;;;;2.60;1.30;;;;;;;;;;5008645;28;20542;-55
2023/08/02 00:33:14;;;;;;;3.37;1.63;;;;;;;;;;5010847;28;21069;-55
2023/08/02 00:35:45;;;;;;;4.70;1.83;;;;;;;;;;5015269;28;20525;-54
2023/08/02 00:38:12;;;;;;;3.10;1.83;;;;;;;;;;5017167;28;20478;-55
2023/08/02 00:40:39;;;;;;;2.30;1.20;;;;;;;;;;5016345;28;20439;-55
2023/08/02 00:43:06;;;;;;;2.90;1.63;;;;;;;;;;5017022;28;20534;-55
2023/08/02 00:45:34;;;;;;;4.00;1.87;;;;;;;;;;5017089;28;20501;-55
2023/08/02 00:48:01;;;;;;;2.97;1.73;;;;;;;;;;5016224;28;20522;-55
2023/08/02 00:50:32;;;;;;;2.60;1.73;;;;;;;;;;5015637;28;20481;-55
2023/08/02 00:53:00;;;;;;;2.30;1.30;;;;;;;;;;5014999;28;21061;-56
2023/08/02 00:55:27;;;;;;;2.13;1.30;;;;;;;;;;5015153;28;20486;-56
2023/08/02 00:57:56;;;;;;;4.30;1.70;;;;;;;;;;5015626;28;20467;-55
2023/08/02 01:00:23;;;;;;;2.50;1.57;;;;;;;;;;5015163;28;20451;-56
2023/08/02 01:02:51;;;;;;;2.40;1.40;;;;;;;;;;5015399;28;20954;-56
2023/08/02 01:05:19;;;;;;;2.60;1.50;;;;;;;;;;5017231;28;20438;-56
2023/08/02 01:07:51;;;;;;;4.43;1.30;;;;;;;;;;5017117;28;20493;-54
2023/08/02 01:10:21;;;;;;;2.10;1.27;;;;;;;;;;5016569;28;20474;-54
2023/08/02 01:12:50;;;;;;;2.40;1.60;;;;;;;;;;5015164;28;20533;-55
2023/08/02 01:15:18;;;;;;;5.60;1.87;;;;;;;;;;5014876;28;20526;-55
2023/08/02 01:17:45;;;;;;;2.87;1.67;;;;;;;;;;5014522;28;20470;-54
2023/08/02 01:20:14;;;;;;;3.10;1.70;;;;;;;;;;5014725;28;20542;-55
2023/08/02 01:22:41;;;;;;;3.10;1.47;;;;;;;;;;5014972;28;20568;-54
2023/08/02 01:25:09;;;;;;;4.00;1.80;;;;;;;;;;5016033;28;20530;-55
2023/08/02 01:27:38;;;;;;;3.43;1.70;;;;;;;;;;5017047;28;20521;-55
2023/08/02 01:30:07;;;;;;;2.77;1.00;;;;;;;;;;5015225;28;20447;-55
2023/08/02 01:32:35;;;;;;;2.97;1.50;;;;;;;;;;5016192;28;20467;-56
2023/08/02 01:35:02;;;;;;;2.97;1.20;;;;;;;;;;5015996;28;20479;-55
2023/08/02 01:37:34;;;;;;;2.63;1.50;;;;;;;;;;5014789;28;20438;-55
2023/08/02 01:40:01;;;;;;;2.77;1.23;;;;;;;;;;5014468;28;20475;-55
2023/08/02 01:42:28;;;;;;;2.73;1.37;;;;;;;;;;5014338;28;21010;-56
2023/08/02 01:44:56;;;;;;;3.93;1.40;;;;;;;;;;5013011;28;20471;-55
2023/08/02 01:47:23;;;;;;;2.30;1.40;;;;;;;;;;5011958;28;20530;-55
2023/08/02 01:49:50;;;;;;;2.73;1.37;;;;;;;;;;5011601;28;20531;-54
2023/08/02 01:52:17;;;;;;;2.60;1.10;;;;;;;;;;5013415;28;20555;-54
2023/08/02 01:54:46;;;;;;;2.03;1.20;;;;;;;;;;5012963;28;20558;-55
2023/08/02 01:57:13;;;;;;;2.27;1.40;;;;;;;;;;5011579;28;20530;-54
2023/08/02 01:59:41;;;;;;;5.47;1.40;;;;;;;;;;5011266;28;20443;-55
2023/08/02 02:02:08;;;;;;;2.23;1.20;;;;;;;;;;5011474;28;20471;-55
2023/08/02 02:04:35;;;;;;;2.13;1.17;;;;;;;;;;5011532;28;20447;-54
2023/08/02 02:07:02;;;;;;;2.37;1.30;;;;;;;;;;5011682;28;20439;-55
2023/08/02 02:09:30;;;;;;;2.90;1.20;;;;;;;;;;5011508;28;20471;-55
2023/08/02 02:11:58;;;;;;;2.87;1.60;;;;;;;;;;5026072;23;20852;-84
2023/08/02 02:14:26;;;;;;;2.60;1.30;;;;;;;;;;4980067;28;20516;-84
2023/08/02 02:16:53;;;;;;;3.60;1.60;;;;;;;;;;4974867;28;20445;-83
2023/08/02 02:19:20;;;;;;;2.40;1.30;;;;;;;;;;4974932;28;20508;-83
2023/08/02 02:21:47;;;;;;;2.60;1.80;;;;;;;;;;4975513;28;20997;-83
2023/08/02 02:24:15;;;;;;;2.10;1.33;;;;;;;;;;4975400;28;20469;-83
2023/08/02 02:26:42;;;;;;;2.40;1.43;;;;;;;;;;4978156;28;20475;-83
2023/08/02 02:29:10;;;;;;;2.97;1.23;;;;;;;;;;4978858;28;20893;-83
2023/08/02 02:31:38;;;;;;;2.60;1.33;;;;;;;;;;4979729;28;20552;-83
2023/08/02 02:34:05;;;;;;;2.47;1.37;;;;;;;;;;4978982;28;20979;-83
2023/08/02 02:36:32;;;;;;;5.30;1.50;;;;;;;;;;4979912;28;20453;-83
2023/08/02 02:38:59;;;;;;;2.73;1.27;;;;;;;;;;4979335;28;20507;-83
2023/08/02 02:41:27;;;;;;;2.00;1.00;;;;;;;;;;4979798;28;20803;-83
2023/08/02 02:43:54;;;;;;;3.37;1.10;;;;;;;;;;4979453;28;20527;-83
2023/08/02 02:46:23;;;;;;;2.17;1.00;;;;;;;;;;4980550;28;20453;-83
2023/08/02 02:48:50;;;;;;;2.57;1.23;;;;;;;;;;4978840;28;20937;-83
2023/08/02 02:51:17;;;;;;;3.20;1.17;;;;;;;;;;4979662;28;20476;-83
2023/08/02 02:53:44;;;;;;;2.43;1.17;;;;;;;;;;4978002;28;20505;-83
2023/08/02 02:56:12;;;;;;;5.33;1.00;;;;;;;;;;4978616;28;20491;-83
2023/08/02 02:58:39;;;;;;;1.83;0.77;;;;;;;;;;4978139;28;20904;-83
2023/08/02 03:01:06;;;;;;;2.53;1.30;;;;;;;;;;4977776;28;20444;-83
2023/08/02 03:03:35;;;;;;;1.93;1.00;;;;;;;;;;4978444;28;21123;-83
2023/08/02 03:06:03;;;;;;;2.40;1.30;;;;;;;;;;4978866;28;20819;-83
2023/08/02 03:08:30;;;;;;;2.40;1.10;;;;;;;;;;4979664;28;20449;-83
2023/08/02 03:10:57;;;;;;;2.57;1.13;;;;;;;;;;4979637;28;20441;-83
2023/08/02 03:13:24;;;;;;;2.27;1.27;;;;;;;;;;4979105;28;20491;-83
2023/08/02 03:15:52;;;;;;;3.20;0.97;;;;;;;;;;4977120;28;20449;-83
2023/08/02 03:18:19;;;;;;;3.50;1.00;;;;;;;;;;4977604;28;20998;-83
2023/08/02 03:20:47;;;;;;;2.03;1.03;;;;;;;;;;4977776;28;20472;-83
2023/08/02 03:23:15;;;;;;;2.00;1.00;;;;;;;;;;4979788;28;20527;-83
2023/08/02 03:25:42;;;;;;;3.23;0.90;;;;;;;;;;4978778;28;20449;-83
2023/08/02 03:28:09;;;;;;;1.73;0.87;;;;;;;;;;4979372;28;20449;-83
2023/08/02 03:30:37;;;;;;;2.33;1.27;;;;;;;;;;4978461;28;20448;-83
2023/08/02 03:33:04;;;;;;;2.23;0.70;;;;;;;;;;4979129;28;20472;-83
2023/08/02 03:35:31;;;;;;;1.93;0.80;;;;;;;;;;4978860;28;20481;-83
2023/08/02 03:38:00;;;;;;;2.20;1.20;;;;;;;;;;4989415;28;20491;-82
2023/08/02 03:40:27;;;;;;;2.20;1.07;;;;;;;;;;4980634;28;20449;-83
2023/08/02 03:42:54;;;;;;;2.27;1.17;;;;;;;;;;4974091;28;20580;-83
2023/08/02 03:45:21;;;;;;;3.20;1.10;;;;;;;;;;4973917;28;20507;-83
2023/08/02 03:47:49;;;;;;;2.23;1.00;;;;;;;;;;4975648;28;20837;-83
2023/08/02 03:50:16;;;;;;;2.10;1.20;;;;;;;;;;4975711;28;20449;-83
2023/08/02 03:52:43;;;;;;;2.60;1.13;;;;;;;;;;4975619;28;21030;-83
2023/08/02 03:55:12;;;;;;;2.83;1.20;;;;;;;;;;4976282;28;20897;-83
2023/08/02 03:57:39;;;;;;;2.17;1.10;;;;;;;;;;4976295;28;20496;-83
2023/08/02 04:00:07;;;;;;;2.10;1.00;;;;;;;;;;4976294;28;20500;-83
2023/08/02 04:02:35;;;;;;;1.97;1.00;;;;;;;;;;4975982;28;20725;-83
2023/08/02 04:05:02;;;;;;;3.00;1.40;;;;;;;;;;4977420;28;20473;-83
2023/08/02 04:07:30;;;;;;;2.20;1.23;;;;;;;;;;4977216;28;20445;-83
2023/08/02 04:09:57;;;;;;;2.43;0.97;;;;;;;;;;4978023;28;20616;-83
2023/08/02 04:12:26;;;;;;;3.30;1.10;;;;;;;;;;4977533;28;20484;-83
2023/08/02 04:14:53;;;;;;;2.33;1.07;;;;;;;;;;4977434;28;20551;-83
2023/08/02 04:17:20;;;;;;;2.30;1.00;;;;;;;;;;4958505;28;20449;-83
2023/08/02 04:19:47;;;;;;;2.20;1.10;;;;;;;;;;4973033;28;20986;-83
2023/08/02 04:22:15;;;;;;;2.30;1.20;;;;;;;;;;4976876;28;20516;-83
2023/08/02 04:24:42;;;;;;;2.70;1.50;;;;;;;;;;4977480;28;20702;-83
2023/08/02 04:27:09;;;;;;;3.47;1.50;;;;;;;;;;4975888;28;20640;-84
2023/08/02 04:29:38;;;;;;;3.90;1.37;;;;;;;;;;4978172;28;20523;-83
2023/08/02 04:32:05;;;;;;;2.60;1.30;;;;;;;;;;4977421;28;20496;-83
2023/08/02 04:34:33;;;;;;;2.73;1.33;;;;;;;;;;4978447;28;20485;-83
2023/08/02 04:37:00;;;;;;;3.10;1.07;;;;;;;;;;4979417;28;20445;-83
2023/08/02 04:39:27;;;;;;;2.67;1.10;;;;;;;;;;4978948;28;20449;-83
2023/08/02 04:41:55;;;;;;;2.00;1.00;;;;;;;;;;4978511;28;20888;-83
2023/08/02 04:44:22;;;;;;;2.67;1.27;;;;;;;;;;4977664;28;20508;-83
2023/08/02 04:46:51;;;;;;;2.47;1.23;;;;;;;;;;4977367;28;20832;-83
2023/08/02 04:49:18;;;;;;;2.77;1.40;;;;;;;;;;4976198;28;20437;-83
2023/08/02 04:51:46;;;;;;;2.87;1.10;;;;;;;;;;4976124;28;20448;-83
2023/08/02 04:54:13;;;;;;;1.83;0.77;;;;;;;;;;4976705;28;20484;-83
2023/08/02 04:56:40;;;;;;;1.93;0.80;;;;;;;;;;4975641;28;20476;-83
2023/08/02 04:59:10;;;;;;;3.87;1.50;;;;;;;;;;4976013;28;20473;-83
2023/08/02 05:01:37;;;;;;;7.33;1.60;;;;;;;;;;4975576;28;20450;-83
2023/08/02 05:04:07;;;;;;;5.67;1.53;;;;;;;;;;4976357;28;20499;-83
2023/08/02 05:06:35;;;;;;;3.47;1.57;;;;;;;;;;4974765;28;20446;-83
2023/08/02 05:09:04;;;;;;;3.43;0.97;;;;;;;;;;4977551;28;20523;-83
2023/08/02 05:11:31;;;;;;;2.80;0.90;;;;;;;;;;4983469;28;20453;-82
2023/08/02 05:13:59;;;;;;;2.10;1.30;;;;;;;;;;4972885;28;20548;-83
2023/08/02 05:16:27;;;;;;;1.93;1.20;;;;;;;;;;4972866;28;20453;-83
2023/08/02 05:18:55;;;;;;;2.50;1.43;;;;;;;;;;4976911;28;20479;-83
2023/08/02 05:21:24;;;;;;;3.03;1.87;;;;;;;;;;4980269;28;20460;-83
2023/08/02 05:23:51;;;;;;;2.50;1.40;;;;;;;;;;4982299;28;20552;-83
2023/08/02 05:26:18;;;;;;;1.90;1.33;;;;;;;;;;4982404;28;20452;-83
2023/08/02 05:28:46;;;;;;;3.40;1.50;;;;;;;;;;4981365;28;20796;-83
2023/08/02 05:31:13;;;;;;;2.50;1.50;;;;;;;;;;4980992;28;20897;-85
2023/08/02 05:33:41;;;;;;;2.43;1.30;;;;;;;;;;4983240;28;20492;-83
2023/08/02 05:36:11;;;;;;;4.07;1.00;;;;;;;;;;4983021;28;20505;-82
2023/08/02 05:38:40;;;;;;;1.70;0.90;;;;;;;;;;4980200;28;20491;-82
2023/08/02 05:41:08;;;;;;;2.23;1.10;;;;;;;;;;4980605;28;20580;-81
2023/08/02 05:43:36;;;;;;;2.60;1.33;;;;;;;;;;4983094;28;20815;-83
2023/08/02 05:46:03;;;;;;;1.80;1.20;;;;;;;;;;4982086;28;20445;-83
2023/08/02 05:48:30;;;;;;;2.63;1.20;;;;;;;;;;4984369;28;20963;-83
2023/08/02 05:50:58;;;;;;;2.77;1.60;;;;;;;;;;4981463;28;21247;-83
2023/08/02 05:53:25;;;;;;;3.20;1.70;;;;;;;;;;4983172;28;21048;-82
2023/08/02 05:55:53;;;;;;;6.23;1.67;;;;;;;;;;4983638;28;20527;-83
2023/08/02 05:58:21;;;;;;;2.47;1.30;;;;;;;;;;4984237;28;20484;-82
2023/08/02 06:00:48;;;;;;;3.30;1.80;;;;;;;;;;4984005;28;20484;-83
2023/08/02 06:03:15;;;;;;;2.10;1.20;;;;;;;;;;4985048;28;20523;-83
2023/08/02 06:05:42;;;;;;;2.10;1.30;;;;;;;;;;4984315;28;20449;-83
2023/08/02 06:08:10;;;;;;;3.90;1.30;;;;;;;;;;4984363;28;20441;-83
2023/08/02 06:10:37;;;;;;;2.20;1.30;;;;;;;;;;4982643;28;20480;-82
2023/08/02 06:13:05;;;;;;;3.37;2.13;;;;;;;;;;4982565;28;20473;-83
2023/08/02 06:15:33;;;;;;;5.30;1.50;;;;;;;;;;4982769;28;20627;-83
2023/08/02 06:18:00;;;;;;;2.30;1.30;;;;;;;;;;4982109;28;20507;-83
2023/08/02 06:20:27;;;;;;;2.20;1.40;;;;;;;;;;4982201;28;20480;-83
2023/08/02 06:22:55;;;;;;;3.60;1.70;;;;;;;;;;4981964;28;20485;-83
2023/08/02 06:25:22;;;;;;;3.47;1.63;;;;;;;;;;4983924;28;20445;-83
2023/08/02 06:27:49;;;;;;;3.83;1.63;;;;;;;;;;4983393;28;20499;-82
2023/08/02 06:30:18;;;;;;;4.23;1.27;;;;;;;;;;4983424;28;20536;-83
2023/08/02 06:32:45;;;;;;;1.90;1.00;;;;;;;;;;4983017;28;20446;-83
2023/08/02 06:35:12;;;;;;;3.93;1.70;;;;;;;;;;4983740;28;20517;-83
2023/08/02 06:37:40;;;;;;;2.40;1.33;;;;;;;;;;4982208;28;20453;-82
2023/08/02 06:40:07;;;;;;;4.00;1.57;;;;;;;;;;4982698;28;20449;-83
2023/08/02 06:42:35;;;;;;;2.90;1.30;;;;;;;;;;4985230;28;20425;-82
2023/08/02 06:45:02;;;;;;;5.93;1.37;;;;;;;;;;4996521;28;20449;-83
2023/08/02 06:47:31;;;;;;;2.70;1.67;;;;;;;;;;4975957;28;20473;-83
2023/08/02 06:49:58;;;;;;;3.20;1.30;;;;;;;;;;4978509;28;20487;-83
2023/08/02 06:52:25;;;;;;;3.20;1.67;;;;;;;;;;4980337;28;20508;-82
2023/08/02 06:54:53;;;;;;;1.97;0.93;;;;;;;;;;4980790;28;20519;-83
2023/08/02 06:57:22;;;;;;;2.20;1.20;;;;;;;;;;4981261;28;20441;-83
2023/08/02 06:59:50;;;;;;;2.20;1.27;;;;;;;;;;4980894;28;20943;-82
2023/08/02 07:02:17;;;;;;;2.10;1.30;;;;;;;;;;4983053;28;20994;-83
2023/08/02 07:04:46;;;;;;;4.00;1.23;;;;;;;;;;4983950;28;21067;-83
2023/08/02 07:07:13;;;;;;;1.90;1.27;;;;;;;;;;4983695;28;20445;-83
2023/08/02 07:09:40;;;;;;;3.90;1.77;;;;;;;;;;4983171;28;20465;-82
2023/08/02 07:12:08;;;;;;;5.70;1.70;;;;;;;;;;4983550;28;20460;-82
2023/08/02 07:14:35;;;;;;;2.20;1.27;;;;;;;;;;4983404;28;20496;-82
2023/08/02 07:17:03;;;;;;;2.77;1.20;;;;;;;;;;4983922;28;20836;-82
2023/08/02 07:19:30;;;;;;;3.57;1.60;;;;;;;;;;4982639;28;20445;-82
2023/08/02 07:21:58;;;;;;;2.80;1.50;;;;;;;;;;4982728;28;20455;-83
2023/08/02 07:24:26;;;;;;;4.20;1.57;;;;;;;;;;4983656;28;20476;-83
2023/08/02 07:26:53;;;;;;;2.90;1.30;;;;;;;;;;4982740;28;20451;-83
2023/08/02 07:29:20;;;;;;;3.07;1.20;;;;;;;;;;4983172;28;20472;-83
2023/08/02 07:31:48;;;;;;;3.10;1.10;;;;;;;;;;4981860;28;20449;-83
2023/08/02 07:34:15;;;;;;;2.60;1.33;;;;;;;;;;4981995;28;20500;-83
2023/08/02 07:36:42;;;;;;;4.50;1.40;;;;;;;;;;4982432;28;20991;-82
2023/08/02 07:39:11;;;;;;;3.10;1.50;;;;;;;;;;4982398;28;20807;-83
2023/08/02 07:41:38;;;;;;;2.50;1.10;;;;;;;;;;4981946;28;20456;-83
2023/08/02 07:44:05;;;;;;;3.40;1.23;;;;;;;;;;4980212;28;20465;-83
2023/08/02 07:46:33;;;;;;;2.40;1.43;;;;;;;;;;4982322;28;20441;-83
2023/08/02 07:49:00;;;;;;;1.90;1.10;;;;;;;;;;4981280;28;20519;-83
2023/08/02 07:51:27;;;;;;;3.73;1.90;;;;;;;;;;4979784;28;20511;-83
2023/08/02 07:53:54;;;;;;;4.10;1.50;;;;;;;;;;4978188;28;20469;-83
2023/08/02 07:56:23;;;;;;;2.57;1.57;;;;;;;;;;4980156;28;20853;-83
2023/08/02 07:58:50;;;;;;;3.13;1.83;;;;;;;;;;4979126;28;20445;-83
2023/08/02 08:01:17;;;;;;;2.70;1.43;;;;;;;;;;4980587;28;20577;-83
2023/08/02 08:03:45;;;;;;;3.70;1.50;;;;;;;;;;4981663;28;20469;-83
2023/08/02 08:06:12;;;;;;;2.33;1.30;;;;;;;;;;4981905;28;20448;-83
2023/08/02 08:08:40;;;;;;;6.67;1.87;;;;;;;;;;4981126;28;20869;-83
2023/08/02 08:11:07;;;;;;;2.10;1.30;;;;;;;;;;4978913;28;20513;-83
2023/08/02 08:13:36;;;;;;;3.20;1.70;;;;;;;;;;4978981;28;20493;-82
2023/08/02 08:16:03;;;;;;;2.40;1.30;;;;;;;;;;4985274;28;20461;-83
2023/08/02 08:18:31;;;;;;;7.03;1.60;;;;;;;;;;4991577;28;20488;-83
2023/08/02 08:20:58;;;;;;;2.40;1.57;;;;;;;;;;4973152;28;20528;-83
2023/08/02 08:23:26;;;;;;;4.00;1.60;;;;;;;;;;4975547;28;20461;-83
2023/08/02 08:25:53;;;;;;;4.03;1.20;;;;;;;;;;5008820;23;20522;-57
2023/08/02 08:28:20;;;;;;;3.20;1.70;;;;;;;;;;5029764;28;20470;-54
2023/08/02 08:30:49;;;;;;;2.53;1.43;;;;;;;;;;5024120;28;20521;-55
2023/08/02 08:33:16;;;;;;;2.20;1.57;;;;;;;;;;5028407;28;20544;-54
2023/08/02 08:35:43;;;;;;;3.13;1.60;;;;;;;;;;5028957;28;21197;-54
2023/08/02 08:38:10;;;;;;;3.00;1.60;;;;;;;;;;5029642;28;20867;-54
2023/08/02 08:40:38;;;;;;;3.10;1.57;;;;;;;;;;5029837;28;20477;-54
2023/08/02 08:43:05;;;;;;;3.60;1.43;;;;;;;;;;5047058;28;20522;-54
2023/08/02 08:45:33;;;;;;;3.90;1.70;;;;;;;;;;5049041;28;20523;-54
2023/08/02 08:48:02;;;;;;;2.90;1.33;;;;;;;;;;5048489;28;20469;-55
2023/08/02 08:50:30;;;;;;;3.00;1.37;;;;;;;;;;5048523;28;20827;-55
2023/08/02 08:52:58;;;;;;;4.07;1.70;;;;;;;;;;5048904;28;20457;-54
2023/08/02 08:55:27;;;;;;;2.93;1.53;;;;;;;;;;5051819;28;20524;-55
2023/08/02 08:57:54;;;;;;;3.27;1.47;;;;;;;;;;5053125;28;20528;-55
2023/08/02 09:00:22;;;;;;;2.90;1.50;;;;;;;;;;5052777;28;20527;-56
2023/08/02 09:02:49;;;;;;;5.73;1.57;;;;;;;;;;5050306;28;20489;-55
2023/08/02 09:05:18;;;;;;;3.17;1.40;;;;;;;;;;5038429;28;20537;-55
2023/08/02 09:07:45;;;;;;;2.80;1.50;;;;;;;;;;5051686;28;20445;-54
2023/08/02 09:10:13;;;;;;;2.53;1.53;;;;;;;;;;5045092;28;20474;-56
2023/08/02 09:12:46;;;;;;;3.20;1.80;;;;;;;;;;5044630;28;20541;-55
2023/08/02 09:15:15;;;;;;;2.83;1.60;;;;;;;;;;5043207;28;20721;-54
2023/08/02 09:17:45;;;;;;;2.60;1.20;;;;;;;;;;5051754;28;20846;-55
2023/08/02 09:20:13;;;;;;;2.50;1.37;;;;;;;;;;5042847;28;20480;-55
2023/08/02 09:22:41;;;;;;;2.60;1.50;;;;;;;;;;5051286;28;20496;-54
2023/08/02 09:25:11;;;;;;;3.63;1.83;;;;;;;;;;5044741;28;20495;-55
2023/08/02 09:27:39;;;;;;;3.70;1.73;;;;;;;;;;5038567;28;20818;-55
2023/08/02 09:30:07;;;;;;;2.80;1.37;;;;;;;;;;5048663;28;20532;-55
2023/08/02 09:32:34;;;;;;;2.83;1.57;;;;;;;;;;5047342;28;20892;-55
2023/08/02 09:35:01;;;;;;;2.50;1.40;;;;;;;;;;5050767;28;20524;-55
2023/08/02 09:37:32;;;;;;;3.10;1.30;;;;;;;;;;5050062;28;20480;-55
2023/08/02 09:40:00;;;;;;;4.67;1.80;;;;;;;;;;5049539;28;20528;-54
2023/08/02 09:42:28;;;;;;;3.30;1.90;;;;;;;;;;5049291;28;20507;-54
2023/08/02 09:44:56;;;;;;;3.40;1.77;;;;;;;;;;5048548;28;20880;-55
2023/08/02 09:47:24;;;;;;;2.80;1.93;;;;;;;;;;5042065;28;20463;-55
2023/08/02 09:50:05;;;;;;;3.00;1.83;;;;;;;;;;5033690;28;20653;-55
2023/08/02 09:52:32;;;;;;;2.80;1.60;;;;;;;;;;5043917;28;20564;-54
2023/08/02 09:55:01;;;;;;;2.43;1.30;;;;;;;;;;5041786;28;20526;-55
2023/08/02 09:57:28;;;;;;;7.50;1.57;;;;;;;;;;5045162;28;20561;-55
2023/08/02 09:59:57;;;;;;;2.93;1.90;;;;;;;;;;5035247;28;20510;-55
2023/08/02 10:02:25;;;;;;;2.50;1.30;;;;;;;;;;5046030;28;20528;-55
2023/08/02 10:04:54;;;;;;;4.40;1.47;;;;;;;;;;5041995;28;20438;-55
2023/08/02 10:07:22;;;;;;;4.63;1.83;;;;;;;;;;5043324;28;20461;-56
2023/08/02 10:09:50;;;;;;;2.63;1.50;;;;;;;;;;5035945;28;20438;-55
2023/08/02 10:12:19;;;;;;;2.90;1.33;;;;;;;;;;5051508;28;20461;-55
2023/08/02 10:14:47;;;;;;;2.30;1.20;;;;;;;;;;5052452;28;20473;-55
2023/08/02 10:17:15;;;;;;;3.93;1.60;;;;;;;;;;5050643;28;20496;-54
2023/08/02 10:19:43;;;;;;;2.50;1.60;;;;;;;;;;5043155;28;20520;-54
2023/08/02 10:22:10;;;;;;;3.00;2.00;;;;;;;;;;5051671;28;20609;-54
2023/08/02 10:24:37;;;;;;;2.30;1.40;;;;;;;;;;5047570;28;20450;-55
2023/08/02 10:27:07;;;;;;;2.80;1.77;;;;;;;;;;5042446;28;20613;-56
2023/08/02 10:29:36;;;;;;;2.00;1.17;;;;;;;;;;5052248;28;20496;-55
2023/08/02 10:32:12;;;;;;;4.10;1.60;;;;;;;;;;5048137;28;20519;-55
2023/08/02 10:34:49;;;;;;;2.80;1.73;;;;;;;;;;5052185;28;20434;-55
2023/08/02 10:37:18;;;;;;;3.20;1.40;;;;;;;;;;5050725;28;20652;-54
2023/08/02 10:39:54;;;;;;;2.57;1.37;;;;;;;;;;5051317;28;20928;-56
2023/08/02 10:42:23;;;;;;;2.70;1.70;;;;;;;;;;5048747;28;20582;-54
2023/08/02 10:45:09;;;;;;;3.70;1.50;;;;;;;;;;5050883;28;20445;-54
2023/08/02 10:47:37;;;;;;;3.60;1.33;;;;;;;;;;5047702;28;20532;-54
2023/08/02 10:50:05;;;;;;;4.37;1.63;;;;;;;;;;5047411;28;20542;-54
2023/08/02 10:52:33;;;;;;;2.17;1.23;;;;;;;;;;5049380;28;20496;-54
2023/08/02 10:55:03;;;;;;;2.43;1.53;;;;;;;;;;5049870;28;21647;-54
2023/08/02 10:57:30;;;;;;;2.47;1.50;;;;;;;;;;5046523;28;20531;-54
2023/08/02 10:59:58;;;;;;;2.97;1.67;;;;;;;;;;5050111;28;20457;-54
2023/08/02 11:02:25;;;;;;;2.60;1.50;;;;;;;;;;5045650;28;20538;-54
2023/08/02 11:04:54;;;;;;;2.63;1.67;;;;;;;;;;5046748;28;20445;-54
2023/08/02 11:07:22;;;;;;;2.70;1.50;;;;;;;;;;5044755;28;20464;-56
2023/08/02 11:09:51;;;;;;;3.60;1.50;;;;;;;;;;5044635;28;20438;-55
2023/08/02 11:12:20;;;;;;;2.20;1.40;;;;;;;;;;5038695;28;20477;-54
2023/08/02 11:14:48;;;;;;;3.50;2.20;;;;;;;;;;5048439;28;20499;-54
2023/08/02 11:17:17;;;;;;;3.00;1.90;;;;;;;;;;5047418;28;20555;-54
2023/08/02 11:19:47;;;;;;;3.43;2.17;;;;;;;;;;5048340;28;21009;-55
2023/08/02 11:22:16;;;;;;;3.87;1.93;;;;;;;;;;5047294;28;20544;-55
2023/08/02 11:24:43;;;;;;;3.80;1.87;;;;;;;;;;5048348;28;20456;-55
2023/08/02 11:27:10;;;;;;;3.77;1.80;;;;;;;;;;5049778;28;20999;-55
2023/08/02 11:29:38;;;;;;;4.93;1.70;;;;;;;;;;5044874;28;20925;-56
2023/08/02 11:32:05;;;;;;;2.83;1.90;;;;;;;;;;5049049;28;20461;-56
2023/08/02 11:34:36;;;;;;;14.33;3.60;;;;;;;;;;5043369;28;21021;-55
2023/08/02 11:37:04;;;;;;;2.80;1.73;;;;;;;;;;5041121;28;20561;-56
2023/08/02 11:39:34;;;;;;;2.53;1.83;;;;;;;;;;5045626;28;20470;-56
2023/08/02 11:42:03;;;;;;;2.33;1.43;;;;;;;;;;5048957;28;20461;-56
2023/08/02 11:44:30;;;;;;;2.97;1.43;;;;;;;;;;5039351;28;21216;-57
2023/08/02 11:46:58;;;;;;;3.20;1.60;;;;;;;;;;5049172;28;20520;-56
2023/08/02 11:49:25;;;;;;;4.60;1.87;;;;;;;;;;5050913;28;20478;-55
2023/08/02 11:51:52;;;;;;;2.97;2.37;;;;;;;;;;5050693;28;20465;-55
2023/08/02 11:54:20;;;;;;;4.70;3.27;;;;;;;;;;5048198;28;20465;-56
2023/08/02 11:56:49;;;;;;;2.20;1.47;;;;;;;;;;5045197;28;20500;-56
2023/08/02 11:59:17;;;;;;;2.90;1.70;;;;;;;;;;5050705;28;20437;-55
2023/08/02 12:01:44;;;;;;;2.43;1.40;;;;;;;;;;5050513;28;20496;-55
2023/08/02 12:04:11;;;;;;;2.47;1.50;;;;;;;;;;5050940;28;20483;-56
2023/08/02 12:06:45;;;;;;;2.70;1.83;;;;;;;;;;5050879;28;20529;-55
2023/08/02 12:09:13;;;;;;;2.10;1.27;;;;;;;;;;5049829;28;20441;-57
2023/08/02 12:11:40;;;;;;;2.53;1.77;;;;;;;;;;5049994;28;20461;-56
2023/08/02 12:14:09;;;;;;;2.60;1.43;;;;;;;;;;5050651;28;20476;-56
2023/08/02 12:16:40;;;;;;;2.43;1.70;;;;;;;;;;5050607;28;20565;-56
2023/08/02 12:19:07;;;;;;;2.40;1.50;;;;;;;;;;5050557;28;20537;-56
2023/08/02 12:21:34;;;;;;;2.60;1.40;;;;;;;;;;5049474;28;20842;-56
2023/08/02 12:24:13;;;;;;;2.83;1.40;;;;;;;;;;5050424;28;20918;-55
2023/08/02 12:26:39;;;;;;;2.87;1.90;;;;;;;;;;5050124;28;20528;-56
2023/08/02 12:29:06;;;;;;;3.03;1.60;;;;;;;;;;5049607;28;20499;-56
2023/08/02 12:31:43;;;;;;;3.00;1.97;;;;;;;;;;5049683;28;20465;-55
2023/08/02 12:34:10;;;;;;;4.33;1.63;;;;;;;;;;5049835;28;20536;-55
2023/08/02 12:36:37;;;;;;;2.87;1.57;;;;;;;;;;5045610;28;20565;-55
2023/08/02 12:39:05;;;;;;;4.53;2.33;;;;;;;;;;5045126;28;20491;-55
2023/08/02 12:41:32;;;;;;;4.53;2.03;;;;;;;;;;5047532;28;20481;-55
2023/08/02 12:43:59;;;;;;;2.60;1.73;;;;;;;;;;5048972;28;20524;-56
2023/08/02 12:46:27;;;;;;;3.00;1.83;;;;;;;;;;5048057;28;20528;-56
2023/08/02 12:48:55;;;;;;;5.33;1.97;;;;;;;;;;5037479;28;21007;-56
2023/08/02 12:51:23;;;;;;;3.57;2.20;;;;;;;;;;5039462;28;20564;-56
2023/08/02 12:53:50;;;;;;;3.60;2.27;;;;;;;;;;5043818;28;20437;-57
2023/08/02 12:56:17;;;;;;;3.10;1.63;;;;;;;;;;5041632;28;20465;-56
2023/08/02 12:58:44;;;;;;;3.70;2.00;;;;;;;;;;5034529;28;20525;-56
2023/08/02 13:01:12;;;;;;;2.77;1.97;;;;;;;;;;5028881;28;20531;-56
2023/08/02 13:03:39;;;;;;;2.77;2.00;;;;;;;;;;5035957;28;20526;-56
2023/08/02 13:06:08;;;;;;;2.73;2.00;;;;;;;;;;5030265;28;20453;-56
2023/08/02 13:08:35;;;;;;;2.80;2.20;;;;;;;;;;5038068;28;20493;-55
2023/08/02 13:11:02;;;;;;;4.20;2.27;;;;;;;;;;5039022;28;20545;-56
2023/08/02 13:13:29;;;;;;;3.57;1.87;;;;;;;;;;5049341;28;20818;-56
2023/08/02 13:15:57;;;;;;;3.80;2.47;;;;;;;;;;5049395;28;20520;-56
2023/08/02 13:18:24;;;;;;;4.13;2.40;;;;;;;;;;5049091;28;20934;-55
2023/08/02 13:20:51;;;;;;;2.90;2.10;;;;;;;;;;5048918;28;20469;-56
2023/08/02 13:23:20;;;;;;;4.07;2.13;;;;;;;;;;5048942;28;20683;-56
2023/08/02 13:25:47;;;;;;;2.47;1.63;;;;;;;;;;5049796;28;20543;-57
2023/08/02 13:28:16;;;;;;;3.23;1.93;;;;;;;;;;5050174;28;20465;-56
2023/08/02 13:30:44;;;;;;;3.63;2.17;;;;;;;;;;5049518;28;20442;-57
2023/08/02 13:33:11;;;;;;;2.67;1.93;;;;;;;;;;5048737;28;20523;-56
2023/08/02 13:35:40;;;;;;;4.60;2.00;;;;;;;;;;5049739;28;20449;-56
2023/08/02 13:38:09;;;;;;;3.07;1.93;;;;;;;;;;5050871;28;20481;-55
2023/08/02 13:40:37;;;;;;;2.87;1.97;;;;;;;;;;5050177;28;20536;-55
2023/08/02 13:43:04;;;;;;;2.93;1.90;;;;;;;;;;5051025;28;20501;-55
2023/08/02 13:45:32;;;;;;;3.83;2.30;;;;;;;;;;5051705;28;21004;-55
2023/08/02 13:47:59;;;;;;;3.00;2.23;;;;;;;;;;5050463;28;20477;-57
2023/08/02 13:50:28;;;;;;;3.93;2.50;;;;;;;;;;5032978;28;20521;-56
2023/08/02 13:52:55;;;;;;;2.73;2.13;;;;;;;;;;5033286;28;20454;-55
2023/08/02 13:55:22;;;;;;;3.70;2.00;;;;;;;;;;5033059;28;20438;-56
2023/08/02 13:57:51;;;;;;;3.73;2.30;;;;;;;;;;5033380;28;20482;-55
2023/08/02 14:00:18;;;;;;;3.33;2.20;;;;;;;;;;5032561;28;20519;-56
2023/08/02 14:02:45;;;;;;;2.83;2.20;;;;;;;;;;5052402;28;20488;-56
2023/08/02 14:05:12;;;;;;;2.90;2.00;;;;;;;;;;5048007;28;20504;-55
2023/08/02 14:07:40;;;;;;;3.17;2.30;;;;;;;;;;5049073;28;20942;-56
2023/08/02 14:10:07;;;;;;;3.00;2.20;;;;;;;;;;5048658;28;20456;-57
2023/08/02 14:12:36;;;;;;;3.07;2.50;;;;;;;;;;5053594;23;20497;-58
2023/08/02 14:15:05;;;;;;;4.27;2.10;;;;;;;;;;5028302;28;20447;-58
2023/08/02 14:17:32;;;;;;;3.97;2.87;;;;;;;;;;5026525;28;20564;-58
2023/08/02 14:19:59;;;;;;;3.80;2.40;;;;;;;;;;5026510;28;20943;-58
2023/08/02 14:22:26;;;;;;;3.10;2.27;;;;;;;;;;5031766;28;20553;-58
2023/08/02 14:24:54;;;;;;;2.83;2.30;;;;;;;;;;5032905;28;20862;-58
2023/08/02 14:27:21;;;;;;;5.03;2.63;;;;;;;;;;5032667;28;20434;-58
2023/08/02 14:29:48;;;;;;;2.80;2.27;;;;;;;;;;5032567;28;20442;-58
2023/08/02 14:32:17;;;;;;;3.00;2.30;;;;;;;;;;5032691;28;20545;-58
2023/08/02 14:34:44;;;;;;;5.90;2.53;;;;;;;;;;5023780;28;20896;-58
2023/08/02 14:37:11;;;;;;;4.50;2.60;;;;;;;;;;5021552;28;20505;-57
2023/08/02 14:39:38;;;;;;;3.03;2.17;;;;;;;;;;5023492;28;20522;-57
2023/08/02 14:42:06;;;;;;;4.13;2.60;;;;;;;;;;5021859;28;21040;-58
2023/08/02 14:44:33;;;;;;;3.63;2.33;;;;;;;;;;5022286;28;20439;-58
2023/08/02 14:47:00;;;;;;;4.60;2.53;;;;;;;;;;5021380;28;20521;-56